Time;durP1;ratioP1;P1;durP2;ratioP2;P2;SDS_P1;SDS_P2;PMS_P1;PMS_P2;Temp;Humidity;BMP_temperature;BMP_pressure;BME280_temperature;BME280_humidity;BME280_pressure;Samples;Min_cycle;Max_cycle;Signal;HPM_P1;HPM_P2
2022/02/28 00:02:30;;;;;;;28.05;13.60;;;;;;;;;;6308603;28;20056;-65
2022/02/28 00:05:32;;;;;;;46.90;22.38;;;;;;;;;;6310556;28;20177;-67
2022/02/28 00:08:34;;;;;;;119.30;56.83;;;;;;;;;;6307608;28;20044;-65
2022/02/28 00:11:37;;;;;;;111.22;49.28;;;;;;;;;;6305559;28;20459;-65
2022/02/28 00:14:38;;;;;;;77.00;36.60;;;;;;;;;;6303164;28;20084;-65
2022/02/28 00:17:40;;;;;;;58.47;29.45;;;;;;;;;;6300051;28;20128;-66
2022/02/28 00:20:42;;;;;;;13.95;8.93;;;;;;;;;;6303279;28;20048;-69
2022/02/28 00:23:43;;;;;;;13.23;7.13;;;;;;;;;;6300564;28;20036;-68
2022/02/28 00:26:46;;;;;;;10.75;6.55;;;;;;;;;;6315368;28;20050;-69
2022/02/28 00:29:48;;;;;;;11.40;7.45;;;;;;;;;;6313804;28;20044;-68
2022/02/28 00:32:49;;;;;;;10.73;6.30;;;;;;;;;;6313382;28;20044;-69
2022/02/28 00:35:51;;;;;;;11.25;6.78;;;;;;;;;;6307690;28;20627;-68
2022/02/28 00:38:53;;;;;;;11.73;7.45;;;;;;;;;;6310521;28;20075;-70
2022/02/28 00:41:56;;;;;;;11.90;7.05;;;;;;;;;;6306180;28;20056;-68
2022/02/28 00:44:57;;;;;;;10.07;6.80;;;;;;;;;;6304316;28;20044;-69
2022/02/28 00:47:59;;;;;;;11.77;6.80;;;;;;;;;;6306251;28;20093;-69
2022/02/28 00:51:01;;;;;;;11.98;7.05;;;;;;;;;;6303302;28;20449;-68
2022/02/28 00:54:02;;;;;;;9.88;7.03;;;;;;;;;;6303882;28;20139;-69
2022/02/28 00:57:06;;;;;;;10.55;6.97;;;;;;;;;;6302295;28;20142;-69
2022/02/28 01:00:10;;;;;;;10.63;6.50;;;;;;;;;;6308203;28;20040;-69
2022/02/28 01:03:11;;;;;;;;;;;;;;;;;;6309446;28;20040;-68
2022/02/28 01:06:13;;;;;;;13.40;7.18;;;;;;;;;;6311892;28;20061;-69
2022/02/28 01:09:15;;;;;;;13.73;7.38;;;;;;;;;;6310685;28;20187;-68
2022/02/28 01:12:17;;;;;;;14.70;6.95;;;;;;;;;;6307676;28;20181;-68
2022/02/28 01:15:20;;;;;;;15.50;7.32;;;;;;;;;;6307391;28;20053;-68
2022/02/28 01:18:22;;;;;;;12.57;7.50;;;;;;;;;;6305245;28;20131;-69
2022/02/28 01:21:23;;;;;;;12.80;6.85;;;;;;;;;;6305360;28;20047;-68
2022/02/28 01:24:25;;;;;;;11.90;7.05;;;;;;;;;;6302498;28;20132;-69
2022/02/28 01:27:28;;;;;;;16.42;7.50;;;;;;;;;;6302744;28;20101;-68
2022/02/28 01:30:30;;;;;;;10.95;6.97;;;;;;;;;;6297381;28;20044;-66
2022/02/28 01:33:32;;;;;;;13.38;7.07;;;;;;;;;;6297199;28;20162;-67
2022/02/28 01:36:34;;;;;;;14.45;7.50;;;;;;;;;;6309143;28;20056;-65
2022/02/28 01:39:36;;;;;;;11.05;7.43;;;;;;;;;;6307906;28;20048;-66
2022/02/28 01:42:39;;;;;;;14.00;7.80;;;;;;;;;;6309499;28;20091;-66
2022/02/28 01:45:40;;;;;;;13.55;7.78;;;;;;;;;;6310900;28;20102;-66
2022/02/28 01:48:42;;;;;;;14.90;7.80;;;;;;;;;;6313096;28;20160;-66
2022/02/28 01:51:45;;;;;;;13.95;8.30;;;;;;;;;;6314086;28;20135;-66
2022/02/28 01:54:46;;;;;;;14.95;7.80;;;;;;;;;;6307707;28;20044;-66
2022/02/28 01:57:50;;;;;;;16.40;7.60;;;;;;;;;;6309399;28;20072;-66
2022/02/28 02:00:52;;;;;;;12.02;7.95;;;;;;;;;;6309552;28;20488;-66
2022/02/28 02:03:53;;;;;;;15.27;7.45;;;;;;;;;;6307259;28;20105;-66
2022/02/28 02:06:55;;;;;;;17.10;7.85;;;;;;;;;;6307179;28;20049;-66
2022/02/28 02:09:57;;;;;;;16.13;9.13;;;;;;;;;;6310889;28;20127;-66
2022/02/28 02:13:00;;;;;;;15.68;9.27;;;;;;;;;;6307074;28;20154;-66
2022/02/28 02:16:02;;;;;;;13.98;8.45;;;;;;;;;;6305721;28;20767;-66
2022/02/28 02:19:04;;;;;;;13.48;8.52;;;;;;;;;;6301307;28;20492;-66
2022/02/28 02:22:08;;;;;;;17.30;9.07;;;;;;;;;;6309333;28;20404;-66
2022/02/28 02:25:09;;;;;;;14.50;8.95;;;;;;;;;;6313382;28;20074;-66
2022/02/28 02:28:14;;;;;;;14.50;9.50;;;;;;;;;;6307511;28;20131;-66
2022/02/28 02:31:16;;;;;;;16.08;9.75;;;;;;;;;;6309224;28;20131;-66
2022/02/28 02:34:17;;;;;;;16.95;9.73;;;;;;;;;;6308038;28;20052;-66
2022/02/28 02:37:20;;;;;;;16.85;9.18;;;;;;;;;;6308133;28;20607;-66
2022/02/28 02:40:22;;;;;;;16.00;10.00;;;;;;;;;;6306317;28;20168;-66
2022/02/28 02:43:24;;;;;;;15.75;8.90;;;;;;;;;;6310279;28;20174;-66
2022/02/28 02:46:25;;;;;;;14.23;8.88;;;;;;;;;;6308001;28;20142;-66
2022/02/28 02:49:27;;;;;;;14.68;9.15;;;;;;;;;;6307482;28;20044;-67
2022/02/28 02:52:30;;;;;;;13.82;9.20;;;;;;;;;;6306631;28;20497;-66
2022/02/28 02:55:32;;;;;;;15.88;8.02;;;;;;;;;;6309975;28;20043;-66
2022/02/28 02:58:34;;;;;;;16.42;8.32;;;;;;;;;;6306950;28;20052;-66
2022/02/28 03:01:35;;;;;;;15.85;8.68;;;;;;;;;;6306939;28;20467;-66
2022/02/28 03:04:37;;;;;;;14.70;8.18;;;;;;;;;;6298031;28;20048;-67
2022/02/28 03:07:40;;;;;;;17.10;8.18;;;;;;;;;;6308877;28;20047;-66
2022/02/28 03:10:42;;;;;;;14.27;8.25;;;;;;;;;;6309283;28;20190;-67
2022/02/28 03:13:43;;;;;;;16.23;9.50;;;;;;;;;;6309343;28;20174;-67
2022/02/28 03:16:45;;;;;;;15.13;9.45;;;;;;;;;;6308421;28;20109;-66
2022/02/28 03:19:46;;;;;;;16.23;8.55;;;;;;;;;;6305157;28;20101;-66
2022/02/28 03:22:49;;;;;;;12.70;8.10;;;;;;;;;;6310631;28;20049;-66
2022/02/28 03:25:53;;;;;;;13.95;8.32;;;;;;;;;;6305057;28;20053;-66
2022/02/28 03:28:54;;;;;;;11.47;8.03;;;;;;;;;;6307356;28;20049;-66
2022/02/28 03:31:56;;;;;;;11.75;8.15;;;;;;;;;;6306735;28;20055;-67
2022/02/28 03:34:57;;;;;;;13.93;8.68;;;;;;;;;;6307307;28;20169;-66
2022/02/28 03:38:01;;;;;;;18.98;8.38;;;;;;;;;;6305158;28;20178;-66
2022/02/28 03:41:02;;;;;;;15.45;8.15;;;;;;;;;;6311326;28;20074;-66
2022/02/28 03:44:04;;;;;;;13.27;8.15;;;;;;;;;;6306436;28;20056;-66
2022/02/28 03:47:06;;;;;;;12.90;7.93;;;;;;;;;;6310853;28;20518;-67
2022/02/28 03:50:08;;;;;;;12.32;8.30;;;;;;;;;;6307265;28;20686;-66
2022/02/28 03:53:11;;;;;;;13.85;7.57;;;;;;;;;;6305959;28;20163;-66
2022/02/28 03:56:12;;;;;;;12.55;7.28;;;;;;;;;;6309754;28;20182;-66
2022/02/28 03:59:14;;;;;;;12.88;8.27;;;;;;;;;;6309259;28;20048;-66
2022/02/28 04:02:16;;;;;;;18.17;7.90;;;;;;;;;;6308796;28;20177;-66
2022/02/28 04:05:19;;;;;;;10.88;7.68;;;;;;;;;;6305741;28;20044;-66
2022/02/28 04:08:22;;;;;;;14.15;8.00;;;;;;;;;;6305743;28;20044;-68
2022/02/28 04:11:23;;;;;;;13.95;7.45;;;;;;;;;;6298590;28;20045;-66
2022/02/28 04:18:21;;;;;;;13.05;7.47;;;;;;;;;;6298098;28;20044;-66
2022/02/28 04:21:23;;;;;;;13.05;8.07;;;;;;;;;;6302817;28;20439;-67
2022/02/28 04:24:26;;;;;;;12.35;8.05;;;;;;;;;;6304297;28;20105;-67
2022/02/28 04:27:28;;;;;;;12.15;7.95;;;;;;;;;;6309792;28;20079;-66
2022/02/28 04:30:29;;;;;;;13.35;8.27;;;;;;;;;;6306532;28;20507;-66
2022/02/28 04:33:31;;;;;;;11.68;7.93;;;;;;;;;;6310924;28;20481;-67
2022/02/28 04:36:32;;;;;;;12.68;7.22;;;;;;;;;;6310601;28;20555;-66
2022/02/28 04:39:35;;;;;;;12.43;7.55;;;;;;;;;;6308455;28;20474;-66
2022/02/28 04:46:33;;;;;;;12.88;7.40;;;;;;;;;;6305721;28;20504;-66
2022/02/28 04:49:35;;;;;;;14.48;7.60;;;;;;;;;;6305906;28;20420;-67
2022/02/28 04:52:37;;;;;;;12.70;7.28;;;;;;;;;;6307870;28;20143;-67
2022/02/28 04:56:03;;;;;;;13.15;7.32;;;;;;;;;;6307151;28;20125;-67
2022/02/28 04:59:05;;;;;;;14.98;7.30;;;;;;;;;;6287088;28;20060;-66
2022/02/28 05:02:06;;;;;;;11.57;7.45;;;;;;;;;;6274635;28;20049;-67
2022/02/28 05:05:09;;;;;;;11.90;7.55;;;;;;;;;;6288458;28;20051;-67
2022/02/28 05:08:10;;;;;;;14.38;7.93;;;;;;;;;;6289486;28;20101;-68
2022/02/28 05:11:13;;;;;;;14.25;8.05;;;;;;;;;;6287614;28;20120;-67
2022/02/28 05:14:15;;;;;;;13.88;7.85;;;;;;;;;;6280458;28;20137;-67
2022/02/28 05:17:17;;;;;;;12.23;7.70;;;;;;;;;;6281180;28;20131;-67
2022/02/28 05:20:18;;;;;;;13.25;8.05;;;;;;;;;;6277846;28;20128;-68
2022/02/28 05:23:20;;;;;;;11.55;8.73;;;;;;;;;;6285048;28;20155;-66
2022/02/28 05:26:23;;;;;;;16.30;8.95;;;;;;;;;;6284033;28;20457;-67
2022/02/28 05:29:48;;;;;;;15.55;9.00;;;;;;;;;;6283187;28;20124;-67
2022/02/28 05:32:49;;;;;;;15.57;9.43;;;;;;;;;;6283217;28;20037;-66
2022/02/28 05:35:51;;;;;;;18.10;9.48;;;;;;;;;;6284478;28;20183;-67
2022/02/28 05:38:53;;;;;;;15.48;9.40;;;;;;;;;;6290217;28;20131;-66
2022/02/28 05:41:55;;;;;;;16.00;8.75;;;;;;;;;;6286337;28;20111;-67
2022/02/28 05:44:57;;;;;;;16.40;8.43;;;;;;;;;;6281633;28;20053;-67
2022/02/28 05:51:55;;;;;;;9.80;6.93;;;;;;;;;;6284885;28;20044;-67
2022/02/28 05:54:57;;;;;;;14.13;7.70;;;;;;;;;;6286154;28;20179;-67
2022/02/28 05:58:00;;;;;;;15.45;9.13;;;;;;;;;;6283284;28;20118;-66
2022/02/28 06:01:01;;;;;;;14.35;7.85;;;;;;;;;;6282687;28;20508;-67
2022/02/28 06:04:03;;;;;;;11.63;7.63;;;;;;;;;;6283790;28;26299;-67
2022/02/28 06:07:04;;;;;;;10.82;6.70;;;;;;;;;;6283634;28;20041;-67
2022/02/28 06:10:06;;;;;;;21.70;7.32;;;;;;;;;;6278045;28;20098;-67
2022/02/28 06:13:09;;;;;;;10.90;6.82;;;;;;;;;;6280810;28;20056;-66
2022/02/28 06:16:11;;;;;;;12.88;6.60;;;;;;;;;;6283406;28;20076;-67
2022/02/28 06:19:13;;;;;;;12.45;8.15;;;;;;;;;;6282398;28;20125;-66
2022/02/28 06:22:14;;;;;;;11.35;6.90;;;;;;;;;;6279505;28;20503;-67
2022/02/28 06:25:16;;;;;;;13.48;7.47;;;;;;;;;;6284533;28;20049;-66
2022/02/28 06:28:21;;;;;;;12.77;7.30;;;;;;;;;;6284828;28;20036;-64
2022/02/28 06:31:22;;;;;;;12.70;7.00;;;;;;;;;;6284054;28;20055;-71
2022/02/28 06:34:24;;;;;;;14.07;7.47;;;;;;;;;;6284875;28;20441;-66
2022/02/28 06:37:25;;;;;;;11.95;7.07;;;;;;;;;;6280770;28;20051;-66
2022/02/28 06:40:27;;;;;;;13.68;7.10;;;;;;;;;;6280195;28;20044;-66
2022/02/28 06:43:30;;;;;;;11.80;6.60;;;;;;;;;;6279229;28;20457;-66
2022/02/28 06:46:32;;;;;;;11.48;7.40;;;;;;;;;;6277109;28;20124;-66
2022/02/28 06:49:33;;;;;;;9.65;6.85;;;;;;;;;;6286971;28;20055;-67
2022/02/28 06:52:35;;;;;;;11.50;7.07;;;;;;;;;;6284364;28;20075;-68
2022/02/28 06:55:40;;;;;;;16.02;7.35;;;;;;;;;;6282915;28;20480;-67
2022/02/28 06:58:43;;;;;;;16.55;7.88;;;;;;;;;;6283028;28;20099;-66
2022/02/28 07:01:45;;;;;;;17.50;7.55;;;;;;;;;;6282952;28;20083;-66
2022/02/28 07:04:47;;;;;;;10.23;7.07;;;;;;;;;;6279951;28;20139;-66
2022/02/28 07:07:48;;;;;;;10.25;7.20;;;;;;;;;;6286293;28;20052;-66
2022/02/28 07:10:50;;;;;;;13.32;6.97;;;;;;;;;;6280193;28;20508;-66
2022/02/28 07:13:53;;;;;;;17.13;8.27;;;;;;;;;;6278974;28;20186;-68
2022/02/28 07:16:55;;;;;;;13.85;8.52;;;;;;;;;;6280716;28;20167;-67
2022/02/28 07:19:56;;;;;;;16.75;9.38;;;;;;;;;;6279071;28;20201;-67
2022/02/28 07:22:58;;;;;;;13.52;8.60;;;;;;;;;;6277513;28;20113;-67
2022/02/28 07:25:59;;;;;;;15.95;8.70;;;;;;;;;;6284104;28;20040;-66
2022/02/28 07:29:02;;;;;;;17.80;8.25;;;;;;;;;;6281187;28;20094;-66
2022/02/28 07:32:57;;;;;;;17.73;9.63;;;;;;;;;;6279764;28;20134;-66
2022/02/28 07:35:58;;;;;;;16.90;8.85;;;;;;;;;;6278898;28;20079;-66
2022/02/28 07:39:00;;;;;;;19.55;8.95;;;;;;;;;;6276814;28;20127;-65
2022/02/28 07:42:01;;;;;;;22.42;9.48;;;;;;;;;;6277415;28;20517;-65
2022/02/28 07:45:06;;;;;;;15.75;9.00;;;;;;;;;;6278962;28;20406;-66
2022/02/28 07:48:08;;;;;;;17.08;8.20;;;;;;;;;;6279852;28;20090;-66
2022/02/28 07:51:09;;;;;;;21.20;10.05;;;;;;;;;;6281436;28;20121;-66
2022/02/28 07:54:11;;;;;;;15.00;8.80;;;;;;;;;;6280337;28;20408;-66
2022/02/28 07:57:12;;;;;;;14.85;8.63;;;;;;;;;;6281566;28;20056;-66
2022/02/28 08:00:16;;;;;;;20.73;9.93;;;;;;;;;;6283623;28;20114;-67
2022/02/28 08:03:18;;;;;;;22.35;9.68;;;;;;;;;;6284804;28;20529;-68
2022/02/28 08:06:19;;;;;;;16.33;9.25;;;;;;;;;;6279977;28;20041;-69
2022/02/28 08:09:21;;;;;;;16.85;8.57;;;;;;;;;;6280983;28;20193;-69
2022/02/28 08:12:24;;;;;;;15.75;9.57;;;;;;;;;;6278840;28;20178;-70
2022/02/28 08:15:27;;;;;;;17.52;9.32;;;;;;;;;;6278709;28;20144;-70
2022/02/28 08:18:28;;;;;;;17.92;9.88;;;;;;;;;;6280182;28;20048;-70
2022/02/28 08:21:30;;;;;;;20.45;10.02;;;;;;;;;;6281203;28;20678;-65
2022/02/28 08:24:32;;;;;;;19.30;10.65;;;;;;;;;;6277863;28;20045;-64
2022/02/28 08:27:34;;;;;;;21.42;11.35;;;;;;;;;;6282222;28;20041;-65
2022/02/28 08:30:37;;;;;;;14.70;9.98;;;;;;;;;;6282544;28;20135;-65
2022/02/28 08:33:38;;;;;;;18.60;10.50;;;;;;;;;;6283554;28;20518;-64
2022/02/28 08:36:40;;;;;;;15.95;10.38;;;;;;;;;;6286500;28;20131;-65
2022/02/28 08:39:41;;;;;;;17.13;12.27;;;;;;;;;;6281925;28;20053;-64
2022/02/28 08:42:43;;;;;;;24.98;11.98;;;;;;;;;;6279134;28;20574;-68
2022/02/28 08:45:46;;;;;;;18.95;11.57;;;;;;;;;;6284368;28;20139;-66
2022/02/28 08:48:47;;;;;;;14.68;11.80;;;;;;;;;;6280490;28;20044;-64
2022/02/28 08:51:50;;;;;;;18.38;11.75;;;;;;;;;;6276570;28;20052;-65
2022/02/28 08:54:52;;;;;;;20.17;11.88;;;;;;;;;;6279022;28;20067;-64
2022/02/28 08:57:53;;;;;;;17.70;12.43;;;;;;;;;;6276860;28;20175;-65
2022/02/28 09:00:56;;;;;;;20.40;13.85;;;;;;;;;;6280912;28;20087;-66
2022/02/28 09:03:58;;;;;;;22.88;11.70;;;;;;;;;;6285390;28;20060;-65
2022/02/28 09:06:59;;;;;;;19.48;12.70;;;;;;;;;;6288555;28;20127;-64
2022/02/28 09:10:01;;;;;;;20.88;12.05;;;;;;;;;;6309561;28;20135;-65
2022/02/28 09:13:02;;;;;;;19.83;12.77;;;;;;;;;;6318393;28;20576;-65
2022/02/28 09:16:06;;;;;;;20.92;12.55;;;;;;;;;;6311487;28;20050;-65
2022/02/28 09:19:08;;;;;;;15.48;11.95;;;;;;;;;;6313055;28;20062;-64
2022/02/28 09:22:11;;;;;;;19.45;11.98;;;;;;;;;;6311697;28;20040;-65
2022/02/28 09:25:12;;;;;;;18.25;11.75;;;;;;;;;;6309751;28;20160;-66
2022/02/28 09:28:14;;;;;;;20.38;12.63;;;;;;;;;;6307720;28;20076;-67
2022/02/28 09:31:17;;;;;;;15.73;12.15;;;;;;;;;;6306021;28;20485;-67
2022/02/28 09:34:18;;;;;;;17.67;12.15;;;;;;;;;;6308166;28;20047;-64
2022/02/28 09:37:20;;;;;;;20.27;12.02;;;;;;;;;;6304696;28;20869;-64
2022/02/28 09:40:28;;;;;;;18.13;12.10;;;;;;;;;;6308401;28;20033;-67
2022/02/28 09:43:29;;;;;;;20.83;12.10;;;;;;;;;;6304948;28;20659;-66
2022/02/28 09:46:33;;;;;;;18.00;12.48;;;;;;;;;;6319727;28;20476;-66
2022/02/28 09:49:35;;;;;;;15.05;11.48;;;;;;;;;;6315932;28;20131;-64
2022/02/28 09:52:36;;;;;;;17.02;11.23;;;;;;;;;;6315916;28;20113;-64
2022/02/28 09:55:38;;;;;;;18.38;11.73;;;;;;;;;;6311783;28;20063;-65
2022/02/28 09:58:40;;;;;;;16.85;11.20;;;;;;;;;;6309757;28;20166;-65
2022/02/28 10:01:45;;;;;;;16.20;11.40;;;;;;;;;;6310413;28;20074;-64
2022/02/28 10:04:48;;;;;;;17.40;10.20;;;;;;;;;;6308127;28;20079;-64
2022/02/28 10:07:51;;;;;;;14.82;10.60;;;;;;;;;;6304562;28;20059;-64
2022/02/28 10:10:52;;;;;;;15.05;10.40;;;;;;;;;;6307220;28;20041;-67
2022/02/28 10:13:55;;;;;;;15.73;10.35;;;;;;;;;;6302936;28;20131;-65
2022/02/28 10:16:59;;;;;;;15.30;10.57;;;;;;;;;;6302357;28;20051;-65
2022/02/28 10:20:01;;;;;;;;;;;;;;;;;;6313447;28;20050;-65
2022/02/28 10:23:03;;;;;;;12.02;9.18;;;;;;;;;;6312411;28;19935;-66
2022/02/28 10:26:08;;;;;;;16.38;9.45;;;;;;;;;;6311908;28;20051;-65
2022/02/28 10:29:11;;;;;;;15.20;9.20;;;;;;;;;;6311929;28;20044;-65
2022/02/28 10:32:14;;;;;;;10.90;8.50;;;;;;;;;;6314366;28;20127;-65
2022/02/28 10:38:33;;;;;;;16.10;10.00;;;;;;;;;;6305274;28;20458;-68
2022/02/28 10:41:37;;;;;;;15.50;9.45;;;;;;;;;;6307326;28;20116;-65
2022/02/28 10:44:38;;;;;;;12.88;8.88;;;;;;;;;;6305752;28;20055;-65
2022/02/28 10:47:48;;;;;;;16.80;10.18;;;;;;;;;;6302407;28;20056;-66
2022/02/28 10:50:50;;;;;;;14.45;9.63;;;;;;;;;;6291922;28;20093;-67
2022/02/28 10:54:07;;;;;;;13.90;8.95;;;;;;;;;;6315243;28;20040;-65
2022/02/28 10:57:10;;;;;;;14.15;9.27;;;;;;;;;;6305889;28;20052;-67
2022/02/28 11:00:13;;;;;;;13.03;9.37;;;;;;;;;;6310660;28;20130;-65
2022/02/28 11:03:16;;;;;;;15.77;9.98;;;;;;;;;;6311701;28;20464;-65
2022/02/28 11:06:20;;;;;;;13.18;9.32;;;;;;;;;;6308108;28;20090;-64
2022/02/28 11:09:29;;;;;;;;;;;;;;;;;;6309198;28;20541;-65
2022/02/28 11:12:32;;;;;;;11.02;9.48;;;;;;;;;;6304289;28;20378;-65
2022/02/28 11:15:34;;;;;;;13.07;8.93;;;;;;;;;;6303944;28;20567;-65
2022/02/28 11:18:38;;;;;;;11.98;9.27;;;;;;;;;;6303231;28;20123;-65
2022/02/28 11:21:39;;;;;;;;;;;;;;;;;;6306873;28;20044;-65
2022/02/28 11:24:41;;;;;;;18.50;12.68;;;;;;;;;;6300503;28;19924;-64
2022/02/28 11:27:43;;;;;;;35.47;22.67;;;;;;;;;;6302632;28;20127;-67
2022/02/28 11:30:45;;;;;;;10.23;9.05;;;;;;;;;;6306541;28;20135;-65
2022/02/28 11:34:05;;;;;;;9.50;7.55;;;;;;;;;;6306118;28;20131;-64
2022/02/28 11:37:11;;;;;;;9.85;7.63;;;;;;;;;;6309956;28;20135;-63
2022/02/28 11:40:13;;;;;;;9.07;7.15;;;;;;;;;;6307914;28;20377;-64
2022/02/28 11:43:17;;;;;;;7.18;6.47;;;;;;;;;;6308846;28;20108;-63
2022/02/28 11:46:21;;;;;;;15.05;7.45;;;;;;;;;;6306386;28;20499;-66
2022/02/28 11:49:24;;;;;;;10.65;7.63;;;;;;;;;;6307794;28;20135;-65
2022/02/28 11:52:33;;;;;;;10.00;7.45;;;;;;;;;;6307242;28;20078;-67
2022/02/28 11:55:35;;;;;;;9.48;7.00;;;;;;;;;;6307364;28;20049;-64
2022/02/28 11:58:36;;;;;;;7.70;6.03;;;;;;;;;;6305368;28;20412;-65
2022/02/28 12:01:39;;;;;;;9.02;5.95;;;;;;;;;;6304282;28;20139;-65
2022/02/28 12:04:43;;;;;;;14.23;6.55;;;;;;;;;;6304843;28;20127;-65
2022/02/28 12:07:45;;;;;;;9.75;5.97;;;;;;;;;;6305227;28;20055;-65
2022/02/28 12:10:55;;;;;;;8.50;5.85;;;;;;;;;;6293521;28;20048;-63
2022/02/28 12:14:01;;;;;;;6.90;6.20;;;;;;;;;;6301646;28;20245;-63
2022/02/28 12:20:26;;;;;;;7.28;6.28;;;;;;;;;;6304203;28;20048;-64
2022/02/28 12:23:29;;;;;;;9.88;7.22;;;;;;;;;;6304483;28;20137;-65
2022/02/28 12:26:31;;;;;;;7.88;5.90;;;;;;;;;;6308728;28;20447;-64
2022/02/28 12:29:33;;;;;;;8.57;5.93;;;;;;;;;;6310393;28;20382;-65
2022/02/28 12:32:48;;;;;;;7.63;6.07;;;;;;;;;;6305173;28;20059;-65
2022/02/28 12:35:54;;;;;;;9.73;6.47;;;;;;;;;;6309640;28;20139;-65
2022/02/28 12:38:57;;;;;;;8.15;5.97;;;;;;;;;;6307551;28;20503;-65
2022/02/28 12:41:59;;;;;;;7.97;6.07;;;;;;;;;;6305240;28;20055;-65
2022/02/28 12:45:00;;;;;;;9.25;6.60;;;;;;;;;;6306680;28;20121;-68
2022/02/28 12:48:02;;;;;;;10.32;6.65;;;;;;;;;;6302694;28;20486;-66
2022/02/28 12:51:07;;;;;;;9.63;6.10;;;;;;;;;;6302614;28;20056;-67
2022/02/28 12:54:11;;;;;;;9.85;6.78;;;;;;;;;;6296751;28;20136;-67
2022/02/28 12:57:13;;;;;;;9.55;6.50;;;;;;;;;;6300042;28;20499;-67
2022/02/28 13:00:15;;;;;;;8.40;6.38;;;;;;;;;;6298151;28;20121;-66
2022/02/28 13:03:17;;;;;;;9.38;6.72;;;;;;;;;;6301160;28;20104;-65
2022/02/28 13:06:21;;;;;;;9.05;6.28;;;;;;;;;;6302167;28;20045;-72
2022/02/28 13:09:23;;;;;;;7.30;6.30;;;;;;;;;;6303548;28;20070;-65
2022/02/28 13:12:28;;;;;;;8.43;6.72;;;;;;;;;;6305665;28;20411;-69
2022/02/28 13:15:31;;;;;;;8.00;6.32;;;;;;;;;;6302873;28;20044;-66
2022/02/28 13:18:33;;;;;;;8.88;6.78;;;;;;;;;;6293347;28;20198;-65
2022/02/28 13:21:39;;;;;;;11.45;6.97;;;;;;;;;;6307761;28;20480;-65
2022/02/28 13:24:42;;;;;;;10.13;6.60;;;;;;;;;;6303882;28;20146;-63
2022/02/28 13:27:44;;;;;;;10.33;7.13;;;;;;;;;;6304020;28;20491;-63
2022/02/28 13:30:45;;;;;;;13.95;6.43;;;;;;;;;;6296621;28;20492;-63
2022/02/28 13:33:47;;;;;;;10.00;6.93;;;;;;;;;;6304206;28;20102;-64
2022/02/28 13:36:53;;;;;;;9.23;6.78;;;;;;;;;;6298402;28;20105;-63
2022/02/28 13:39:56;;;;;;;8.90;6.88;;;;;;;;;;6296846;28;20149;-64
2022/02/28 13:42:58;;;;;;;11.18;7.20;;;;;;;;;;6299509;28;20120;-63
2022/02/28 13:46:01;;;;;;;11.88;7.00;;;;;;;;;;6307742;28;20048;-63
2022/02/28 13:49:03;;;;;;;7.28;6.20;;;;;;;;;;6313853;28;20515;-64
2022/02/28 13:52:08;;;;;;;10.07;6.50;;;;;;;;;;6317058;28;20040;-64
2022/02/28 13:55:14;;;;;;;8.95;6.25;;;;;;;;;;6307351;28;20499;-64
2022/02/28 13:58:16;;;;;;;10.23;6.72;;;;;;;;;;6308386;28;20044;-64
2022/02/28 14:01:18;;;;;;;8.45;6.68;;;;;;;;;;6312554;28;20059;-64
2022/02/28 14:04:22;;;;;;;7.78;6.00;;;;;;;;;;6311481;28;20131;-63
2022/02/28 14:07:25;;;;;;;7.90;6.15;;;;;;;;;;6309587;28;20053;-64
2022/02/28 14:10:29;;;;;;;8.20;5.82;;;;;;;;;;6302287;28;20557;-64
2022/02/28 14:13:32;;;;;;;8.40;6.32;;;;;;;;;;6305190;28;20060;-64
2022/02/28 14:16:35;;;;;;;10.32;6.38;;;;;;;;;;6302053;28;20061;-64
2022/02/28 14:19:39;;;;;;;8.82;5.90;;;;;;;;;;6305691;28;20075;-65
2022/02/28 14:22:42;;;;;;;;;;;;;;;;;;6305541;28;20613;-64
2022/02/28 14:25:45;;;;;;;7.72;6.18;;;;;;;;;;6310537;28;19920;-64
2022/02/28 14:28:47;;;;;;;7.35;6.10;;;;;;;;;;6308093;28;20122;-64
2022/02/28 14:31:51;;;;;;;9.48;6.68;;;;;;;;;;6311079;28;20044;-64
2022/02/28 14:34:52;;;;;;;7.68;6.30;;;;;;;;;;6311170;28;20341;-64
2022/02/28 14:37:57;;;;;;;9.23;6.70;;;;;;;;;;6305561;27;20123;-63
2022/02/28 14:41:03;;;;;;;8.98;6.30;;;;;;;;;;6308533;28;20052;-64
2022/02/28 14:44:06;;;;;;;10.38;6.55;;;;;;;;;;6305646;28;20142;-63
2022/02/28 14:47:08;;;;;;;9.80;6.47;;;;;;;;;;6307997;28;20532;-64
2022/02/28 14:50:10;;;;;;;11.48;6.85;;;;;;;;;;6306539;28;20043;-64
2022/02/28 14:53:13;;;;;;;7.38;6.05;;;;;;;;;;6305794;28;20213;-64
2022/02/28 14:56:14;;;;;;;9.00;6.00;;;;;;;;;;6303712;28;20076;-64
2022/02/28 14:59:16;;;;;;;7.18;5.93;;;;;;;;;;6306972;28;20425;-64
2022/02/28 15:02:17;;;;;;;7.55;5.70;;;;;;;;;;6311062;28;20082;-63
2022/02/28 15:05:19;;;;;;;10.38;6.30;;;;;;;;;;6309603;28;20185;-64
2022/02/28 15:08:22;;;;;;;9.60;6.43;;;;;;;;;;6311815;28;20121;-63
2022/02/28 15:11:24;;;;;;;8.63;6.20;;;;;;;;;;6309561;28;20089;-64
2022/02/28 15:14:25;;;;;;;9.10;6.43;;;;;;;;;;6308545;28;20043;-64
2022/02/28 15:17:27;;;;;;;8.63;6.50;;;;;;;;;;6308563;28;20044;-64
2022/02/28 15:20:28;;;;;;;8.38;6.22;;;;;;;;;;6305909;28;20047;-67
2022/02/28 15:23:31;;;;;;;17.40;7.15;;;;;;;;;;6304430;28;20126;-64
2022/02/28 15:26:33;;;;;;;7.63;6.15;;;;;;;;;;6301949;28;20167;-64
2022/02/28 15:29:35;;;;;;;8.73;6.10;;;;;;;;;;6297645;28;20174;-65
2022/02/28 15:32:37;;;;;;;8.82;6.15;;;;;;;;;;6302496;28;20048;-65
2022/02/28 15:35:39;;;;;;;8.30;6.53;;;;;;;;;;6301519;28;20138;-64
2022/02/28 15:38:42;;;;;;;9.23;6.20;;;;;;;;;;6302385;28;20064;-65
2022/02/28 15:41:44;;;;;;;8.05;6.57;;;;;;;;;;6300681;28;20055;-64
2022/02/28 15:44:46;;;;;;;8.15;6.72;;;;;;;;;;6302381;28;20056;-66
2022/02/28 15:47:47;;;;;;;9.45;5.90;;;;;;;;;;6306395;28;20040;-63
2022/02/28 15:50:49;;;;;;;7.57;6.13;;;;;;;;;;6308720;28;20195;-63
2022/02/28 15:53:52;;;;;;;10.50;6.97;;;;;;;;;;6304878;28;20128;-65
2022/02/28 15:56:53;;;;;;;10.35;6.32;;;;;;;;;;6302971;28;20505;-65
2022/02/28 15:59:55;;;;;;;11.48;6.78;;;;;;;;;;6302730;28;20509;-65
2022/02/28 16:02:57;;;;;;;7.20;5.85;;;;;;;;;;6305697;28;20131;-65
2022/02/28 16:05:59;;;;;;;7.32;6.53;;;;;;;;;;6302731;28;20063;-65
2022/02/28 16:09:02;;;;;;;13.30;7.00;;;;;;;;;;6307144;28;20274;-65
2022/02/28 16:12:04;;;;;;;12.48;6.57;;;;;;;;;;6304784;28;20052;-65
2022/02/28 16:15:08;;;;;;;8.43;6.20;;;;;;;;;;6307559;28;20484;-65
2022/02/28 16:18:10;;;;;;;9.80;6.32;;;;;;;;;;6297499;28;20117;-65
2022/02/28 16:21:11;;;;;;;10.63;6.50;;;;;;;;;;6300309;28;20056;-65
2022/02/28 16:24:14;;;;;;;9.15;6.15;;;;;;;;;;6306210;28;20443;-66
2022/02/28 16:27:16;;;;;;;7.32;6.55;;;;;;;;;;6306132;28;20118;-64
2022/02/28 16:30:20;;;;;;;8.32;6.65;;;;;;;;;;6305576;28;20516;-65
2022/02/28 16:33:21;;;;;;;8.50;6.97;;;;;;;;;;6309970;28;20151;-65
2022/02/28 16:36:24;;;;;;;8.95;7.05;;;;;;;;;;6305061;28;20064;-66
2022/02/28 16:39:27;;;;;;;8.02;6.15;;;;;;;;;;6303798;28;20070;-66
2022/02/28 16:42:29;;;;;;;12.03;7.03;;;;;;;;;;6304927;28;20434;-64
2022/02/28 16:45:31;;;;;;;11.07;7.03;;;;;;;;;;6308370;28;20507;-65
2022/02/28 16:48:32;;;;;;;10.57;7.28;;;;;;;;;;6308781;28;20044;-64
2022/02/28 16:51:34;;;;;;;9.65;6.47;;;;;;;;;;6305593;28;20187;-66
2022/02/28 16:54:38;;;;;;;10.45;7.20;;;;;;;;;;6305595;28;20051;-65
2022/02/28 16:57:40;;;;;;;11.68;6.80;;;;;;;;;;6297585;28;20089;-66
2022/02/28 17:00:42;;;;;;;12.98;6.85;;;;;;;;;;6303202;28;20125;-65
2022/02/28 17:03:43;;;;;;;10.77;6.72;;;;;;;;;;6306578;28;20111;-65
2022/02/28 17:06:45;;;;;;;8.10;6.22;;;;;;;;;;6305540;28;20472;-65
2022/02/28 17:09:48;;;;;;;8.00;6.00;;;;;;;;;;6303851;28;20123;-65
2022/02/28 17:12:49;;;;;;;7.18;6.28;;;;;;;;;;6277505;28;20672;-65
2022/02/28 17:15:52;;;;;;;10.23;6.63;;;;;;;;;;6277909;28;20120;-65
2022/02/28 17:18:54;;;;;;;9.75;6.78;;;;;;;;;;6297636;28;20128;-64
2022/02/28 17:21:56;;;;;;;8.77;6.28;;;;;;;;;;6312413;28;20048;-65
2022/02/28 17:24:59;;;;;;;7.95;6.45;;;;;;;;;;6309345;28;20040;-65
2022/02/28 17:28:01;;;;;;;8.20;6.25;;;;;;;;;;6307630;28;20415;-65
2022/02/28 17:31:03;;;;;;;11.18;6.40;;;;;;;;;;6308803;28;20694;-64
2022/02/28 17:34:06;;;;;;;8.60;6.63;;;;;;;;;;6309578;28;20506;-64
2022/02/28 17:37:10;;;;;;;11.25;6.82;;;;;;;;;;6310299;28;20064;-65
2022/02/28 17:40:15;;;;;;;12.23;7.07;;;;;;;;;;6310035;28;20059;-65
2022/02/28 17:43:17;;;;;;;10.68;7.40;;;;;;;;;;6312436;28;20051;-64
2022/02/28 17:46:19;;;;;;;10.23;7.32;;;;;;;;;;6313275;28;20075;-65
2022/02/28 17:49:20;;;;;;;9.27;6.70;;;;;;;;;;6314944;28;20398;-64
2022/02/28 17:52:23;;;;;;;11.32;7.57;;;;;;;;;;6306080;28;20056;-64
2022/02/28 17:55:26;;;;;;;10.73;7.35;;;;;;;;;;6313248;28;20123;-65
2022/02/28 17:58:27;;;;;;;12.88;7.10;;;;;;;;;;6309881;28;20048;-64
2022/02/28 18:01:29;;;;;;;10.02;7.55;;;;;;;;;;6558627;22;20595;-62
2022/02/28 18:04:31;;;;;;;12.25;8.05;;;;;;;;;;6248606;28;20078;-62
2022/02/28 18:07:32;;;;;;;15.75;8.63;;;;;;;;;;6243857;28;20173;-63
2022/02/28 18:10:35;;;;;;;11.27;8.30;;;;;;;;;;6240042;28;20171;-63
2022/02/28 18:16:47;;;;;;;12.50;8.10;;;;;;;;;;6666143;22;20050;-63
2022/02/28 18:19:49;;;;;;;9.95;7.90;;;;;;;;;;6204838;28;20050;-63
2022/02/28 18:26:02;;;;;;;11.65;8.02;;;;;;;;;;6890867;23;20535;-63
2022/02/28 18:29:03;;;;;;;14.82;8.23;;;;;;;;;;6241025;22;20054;-69